sensor_id;sensor_type;location;lat;lon;timestamp;P1;durP1;ratioP1;P2;durP2;ratioP2
49131;SDS011;35149;51.196;6.204;2022-09-12T00:01:32;4.47;;;4.07;;
49131;SDS011;35149;51.196;6.204;2022-09-12T00:04:02;3.70;;;3.38;;
49131;SDS011;35149;51.196;6.204;2022-09-12T00:06:36;4.03;;;3.20;;
49131;SDS011;35149;51.196;6.204;2022-09-12T00:09:08;3.83;;;3.40;;
49131;SDS011;35149;51.196;6.204;2022-09-12T00:11:40;4.55;;;3.70;;
49131;SDS011;35149;51.196;6.204;2022-09-12T00:14:10;5.18;;;4.15;;
49131;SDS011;35149;51.196;6.204;2022-09-12T00:16:42;6.97;;;4.90;;
49131;SDS011;35149;51.196;6.204;2022-09-12T00:19:13;4.63;;;4.20;;
49131;SDS011;35149;51.196;6.204;2022-09-12T00:21:41;6.05;;;4.63;;
49131;SDS011;35149;51.196;6.204;2022-09-12T00:24:08;5.57;;;4.25;;
49131;SDS011;35149;51.196;6.204;2022-09-12T00:26:36;4.20;;;3.80;;
49131;SDS011;35149;51.196;6.204;2022-09-12T00:29:03;5.85;;;4.47;;
49131;SDS011;35149;51.196;6.204;2022-09-12T00:31:30;4.90;;;4.40;;
49131;SDS011;35149;51.196;6.204;2022-09-12T00:34:02;5.28;;;4.38;;
49131;SDS011;35149;51.196;6.204;2022-09-12T00:36:33;5.57;;;4.78;;
49131;SDS011;35149;51.196;6.204;2022-09-12T00:39:03;7.53;;;4.82;;
49131;SDS011;35149;51.196;6.204;2022-09-12T00:49:28;6.05;;;4.75;;
49131;SDS011;35149;51.196;6.204;2022-09-12T00:54:56;5.82;;;4.28;;
49131;SDS011;35149;51.196;6.204;2022-09-12T01:00:30;5.20;;;3.97;;
49131;SDS011;35149;51.196;6.204;2022-09-12T01:02:59;4.80;;;4.00;;
49131;SDS011;35149;51.196;6.204;2022-09-12T01:05:38;5.63;;;3.88;;
49131;SDS011;35149;51.196;6.204;2022-09-12T01:08:13;5.22;;;3.92;;
49131;SDS011;35149;51.196;6.204;2022-09-12T01:10:45;8.18;;;4.68;;
49131;SDS011;35149;51.196;6.204;2022-09-12T01:13:15;8.93;;;4.10;;
49131;SDS011;35149;51.196;6.204;2022-09-12T01:15:44;4.82;;;4.10;;
49131;SDS011;35149;51.196;6.204;2022-09-12T01:18:25;5.20;;;4.53;;
49131;SDS011;35149;51.196;6.204;2022-09-12T01:21:57;5.85;;;4.50;;
49131;SDS011;35149;51.196;6.204;2022-09-12T01:24:21;5.55;;;4.45;;
49131;SDS011;35149;51.196;6.204;2022-09-12T01:27:35;9.43;;;5.03;;
49131;SDS011;35149;51.196;6.204;2022-09-12T01:36:04;5.30;;;4.43;;
49131;SDS011;35149;51.196;6.204;2022-09-12T01:38:49;6.13;;;4.63;;
49131;SDS011;35149;51.196;6.204;2022-09-12T01:44:06;7.30;;;4.63;;
49131;SDS011;35149;51.196;6.204;2022-09-12T01:46:42;5.68;;;4.00;;
49131;SDS011;35149;51.196;6.204;2022-09-12T01:57:12;5.97;;;4.07;;
49131;SDS011;35149;51.196;6.204;2022-09-12T01:59:47;4.80;;;4.28;;
49131;SDS011;35149;51.196;6.204;2022-09-12T02:05:14;6.00;;;5.07;;
49131;SDS011;35149;51.196;6.204;2022-09-12T02:07:51;5.43;;;4.78;;
49131;SDS011;35149;51.196;6.204;2022-09-12T02:10:35;7.95;;;5.45;;
49131;SDS011;35149;51.196;6.204;2022-09-12T02:13:33;7.47;;;5.80;;
49131;SDS011;35149;51.196;6.204;2022-09-12T02:16:14;6.30;;;5.70;;
49131;SDS011;35149;51.196;6.204;2022-09-12T02:18:52;8.20;;;6.57;;
49131;SDS011;35149;51.196;6.204;2022-09-12T02:21:24;7.80;;;6.28;;
49131;SDS011;35149;51.196;6.204;2022-09-12T02:23:56;8.85;;;7.13;;
49131;SDS011;35149;51.196;6.204;2022-09-12T02:26:33;7.53;;;6.18;;
49131;SDS011;35149;51.196;6.204;2022-09-12T02:29:11;11.25;;;5.95;;
49131;SDS011;35149;51.196;6.204;2022-09-12T02:37:14;9.10;;;6.03;;
49131;SDS011;35149;51.196;6.204;2022-09-12T02:40:07;8.18;;;6.13;;
49131;SDS011;35149;51.196;6.204;2022-09-12T02:42:35;8.70;;;6.90;;
49131;SDS011;35149;51.196;6.204;2022-09-12T02:45:02;9.77;;;6.15;;
49131;SDS011;35149;51.196;6.204;2022-09-12T02:52:30;7.78;;;5.93;;
49131;SDS011;35149;51.196;6.204;2022-09-12T02:54:59;8.68;;;6.13;;
49131;SDS011;35149;51.196;6.204;2022-09-12T02:57:38;7.43;;;5.93;;
49131;SDS011;35149;51.196;6.204;2022-09-12T03:00:06;7.03;;;5.70;;
49131;SDS011;35149;51.196;6.204;2022-09-12T03:02:44;9.20;;;5.75;;
49131;SDS011;35149;51.196;6.204;2022-09-12T03:05:23;7.85;;;6.40;;
49131;SDS011;35149;51.196;6.204;2022-09-12T03:08:11;8.15;;;6.53;;
49131;SDS011;35149;51.196;6.204;2022-09-12T03:10:50;7.90;;;6.28;;
49131;SDS011;35149;51.196;6.204;2022-09-12T03:18:56;9.15;;;6.82;;
49131;SDS011;35149;51.196;6.204;2022-09-12T03:21:32;7.93;;;6.22;;
49131;SDS011;35149;51.196;6.204;2022-09-12T03:27:06;8.63;;;6.50;;
49131;SDS011;35149;51.196;6.204;2022-09-12T03:29:38;11.60;;;6.95;;
49131;SDS011;35149;51.196;6.204;2022-09-12T03:32:09;11.20;;;7.95;;
49131;SDS011;35149;51.196;6.204;2022-09-12T03:34:36;8.35;;;6.72;;
49131;SDS011;35149;51.196;6.204;2022-09-12T03:37:02;9.25;;;6.85;;
49131;SDS011;35149;51.196;6.204;2022-09-12T03:39:31;9.52;;;7.03;;
49131;SDS011;35149;51.196;6.204;2022-09-12T03:42:00;8.15;;;6.90;;
49131;SDS011;35149;51.196;6.204;2022-09-12T03:44:27;10.35;;;6.60;;
49131;SDS011;35149;51.196;6.204;2022-09-12T03:46:55;10.35;;;7.45;;
49131;SDS011;35149;51.196;6.204;2022-09-12T03:49:36;11.27;;;7.68;;
49131;SDS011;35149;51.196;6.204;2022-09-12T03:52:02;9.32;;;7.70;;
49131;SDS011;35149;51.196;6.204;2022-09-12T03:54:32;9.38;;;7.13;;
49131;SDS011;35149;51.196;6.204;2022-09-12T03:57:04;10.45;;;7.80;;
49131;SDS011;35149;51.196;6.204;2022-09-12T03:59:31;11.55;;;8.82;;
49131;SDS011;35149;51.196;6.204;2022-09-12T04:02:02;11.43;;;9.23;;
49131;SDS011;35149;51.196;6.204;2022-09-12T04:04:31;10.95;;;8.38;;
49131;SDS011;35149;51.196;6.204;2022-09-12T04:07:00;13.75;;;9.23;;
49131;SDS011;35149;51.196;6.204;2022-09-12T04:09:26;13.57;;;9.02;;
49131;SDS011;35149;51.196;6.204;2022-09-12T04:11:56;12.52;;;9.35;;
49131;SDS011;35149;51.196;6.204;2022-09-12T04:14:25;11.68;;;8.48;;
49131;SDS011;35149;51.196;6.204;2022-09-12T04:16:53;13.18;;;9.43;;
49131;SDS011;35149;51.196;6.204;2022-09-12T04:19:27;13.30;;;9.27;;
49131;SDS011;35149;51.196;6.204;2022-09-12T04:21:54;14.00;;;8.77;;
49131;SDS011;35149;51.196;6.204;2022-09-12T04:24:23;12.80;;;9.63;;
49131;SDS011;35149;51.196;6.204;2022-09-12T04:26:49;13.98;;;9.88;;
49131;SDS011;35149;51.196;6.204;2022-09-12T04:29:17;15.85;;;8.43;;
49131;SDS011;35149;51.196;6.204;2022-09-12T04:31:47;11.98;;;10.05;;
49131;SDS011;35149;51.196;6.204;2022-09-12T04:34:13;14.63;;;9.23;;
49131;SDS011;35149;51.196;6.204;2022-09-12T04:36:40;12.65;;;8.73;;
49131;SDS011;35149;51.196;6.204;2022-09-12T04:39:07;14.15;;;9.25;;
49131;SDS011;35149;51.196;6.204;2022-09-12T04:41:36;12.80;;;9.65;;
49131;SDS011;35149;51.196;6.204;2022-09-12T04:44:05;16.83;;;9.82;;
49131;SDS011;35149;51.196;6.204;2022-09-12T04:46:36;14.25;;;9.13;;
49131;SDS011;35149;51.196;6.204;2022-09-12T04:49:05;13.52;;;9.23;;
49131;SDS011;35149;51.196;6.204;2022-09-12T04:51:34;11.88;;;8.90;;
49131;SDS011;35149;51.196;6.204;2022-09-12T04:54:06;14.10;;;10.48;;
49131;SDS011;35149;51.196;6.204;2022-09-12T04:56:39;13.75;;;10.38;;
49131;SDS011;35149;51.196;6.204;2022-09-12T04:59:07;16.30;;;10.48;;
49131;SDS011;35149;51.196;6.204;2022-09-12T05:04:09;11.88;;;8.32;;
49131;SDS011;35149;51.196;6.204;2022-09-12T05:06:43;13.70;;;10.27;;
49131;SDS011;35149;51.196;6.204;2022-09-12T05:09:17;16.17;;;9.95;;
49131;SDS011;35149;51.196;6.204;2022-09-12T05:14:32;13.27;;;9.45;;
49131;SDS011;35149;51.196;6.204;2022-09-12T05:17:02;15.98;;;11.07;;
49131;SDS011;35149;51.196;6.204;2022-09-12T05:19:31;13.07;;;10.10;;
49131;SDS011;35149;51.196;6.204;2022-09-12T05:21:58;13.95;;;10.80;;
49131;SDS011;35149;51.196;6.204;2022-09-12T05:24:27;18.17;;;11.05;;
49131;SDS011;35149;51.196;6.204;2022-09-12T05:26:54;16.20;;;11.55;;
49131;SDS011;35149;51.196;6.204;2022-09-12T05:29:23;15.90;;;10.65;;
49131;SDS011;35149;51.196;6.204;2022-09-12T05:31:52;15.73;;;11.52;;
49131;SDS011;35149;51.196;6.204;2022-09-12T05:34:19;19.67;;;13.27;;
49131;SDS011;35149;51.196;6.204;2022-09-12T05:36:46;17.67;;;10.88;;
49131;SDS011;35149;51.196;6.204;2022-09-12T05:39:16;16.65;;;11.55;;
49131;SDS011;35149;51.196;6.204;2022-09-12T05:41:45;15.77;;;10.95;;
49131;SDS011;35149;51.196;6.204;2022-09-12T05:44:12;14.63;;;12.02;;
49131;SDS011;35149;51.196;6.204;2022-09-12T05:46:45;14.85;;;11.35;;
49131;SDS011;35149;51.196;6.204;2022-09-12T05:49:15;16.65;;;10.82;;
49131;SDS011;35149;51.196;6.204;2022-09-12T05:51:43;21.48;;;14.38;;
49131;SDS011;35149;51.196;6.204;2022-09-12T05:54:11;17.58;;;12.45;;
49131;SDS011;35149;51.196;6.204;2022-09-12T05:56:42;19.30;;;12.52;;
49131;SDS011;35149;51.196;6.204;2022-09-12T05:59:17;17.60;;;12.70;;
49131;SDS011;35149;51.196;6.204;2022-09-12T06:01:45;20.63;;;13.88;;
49131;SDS011;35149;51.196;6.204;2022-09-12T06:04:19;23.48;;;15.05;;
49131;SDS011;35149;51.196;6.204;2022-09-12T06:06:51;18.13;;;13.13;;
49131;SDS011;35149;51.196;6.204;2022-09-12T06:09:17;21.42;;;13.73;;
49131;SDS011;35149;51.196;6.204;2022-09-12T06:11:46;20.98;;;15.57;;
49131;SDS011;35149;51.196;6.204;2022-09-12T06:14:14;21.25;;;15.15;;
49131;SDS011;35149;51.196;6.204;2022-09-12T06:16:46;23.13;;;14.52;;
49131;SDS011;35149;51.196;6.204;2022-09-12T06:19:19;20.02;;;13.88;;
49131;SDS011;35149;51.196;6.204;2022-09-12T06:21:49;24.48;;;14.82;;
49131;SDS011;35149;51.196;6.204;2022-09-12T06:24:18;23.02;;;16.38;;
49131;SDS011;35149;51.196;6.204;2022-09-12T06:26:46;23.92;;;15.43;;
49131;SDS011;35149;51.196;6.204;2022-09-12T06:29:17;24.63;;;15.45;;
49131;SDS011;35149;51.196;6.204;2022-09-12T06:31:44;23.02;;;15.88;;
49131;SDS011;35149;51.196;6.204;2022-09-12T06:34:12;23.60;;;16.55;;
49131;SDS011;35149;51.196;6.204;2022-09-12T06:36:43;22.60;;;16.92;;
49131;SDS011;35149;51.196;6.204;2022-09-12T06:39:12;22.13;;;15.73;;
49131;SDS011;35149;51.196;6.204;2022-09-12T06:41:49;24.75;;;16.02;;
49131;SDS011;35149;51.196;6.204;2022-09-12T06:44:31;24.80;;;15.85;;
49131;SDS011;35149;51.196;6.204;2022-09-12T06:46:58;23.40;;;17.08;;
49131;SDS011;35149;51.196;6.204;2022-09-12T06:49:24;22.35;;;15.85;;
49131;SDS011;35149;51.196;6.204;2022-09-12T06:52:00;27.10;;;16.67;;
49131;SDS011;35149;51.196;6.204;2022-09-12T06:54:36;23.30;;;16.40;;
49131;SDS011;35149;51.196;6.204;2022-09-12T06:57:03;24.65;;;16.58;;
49131;SDS011;35149;51.196;6.204;2022-09-12T06:59:30;20.77;;;15.43;;
49131;SDS011;35149;51.196;6.204;2022-09-12T07:01:57;20.77;;;15.73;;
49131;SDS011;35149;51.196;6.204;2022-09-12T07:04:23;21.77;;;16.70;;
49131;SDS011;35149;51.196;6.204;2022-09-12T07:06:50;23.17;;;16.42;;
49131;SDS011;35149;51.196;6.204;2022-09-12T07:09:17;22.88;;;16.73;;
49131;SDS011;35149;51.196;6.204;2022-09-12T07:11:43;26.05;;;16.67;;
49131;SDS011;35149;51.196;6.204;2022-09-12T07:14:11;21.67;;;15.65;;
49131;SDS011;35149;51.196;6.204;2022-09-12T07:16:39;21.55;;;15.85;;
49131;SDS011;35149;51.196;6.204;2022-09-12T07:19:08;21.38;;;15.00;;
49131;SDS011;35149;51.196;6.204;2022-09-12T07:21:43;22.08;;;16.15;;
49131;SDS011;35149;51.196;6.204;2022-09-12T07:24:09;23.63;;;15.85;;
49131;SDS011;35149;51.196;6.204;2022-09-12T07:26:37;22.02;;;16.13;;
49131;SDS011;35149;51.196;6.204;2022-09-12T07:29:08;20.45;;;15.70;;
49131;SDS011;35149;51.196;6.204;2022-09-12T07:32:03;20.80;;;15.20;;
49131;SDS011;35149;51.196;6.204;2022-09-12T07:34:31;19.23;;;15.05;;
49131;SDS011;35149;51.196;6.204;2022-09-12T07:37:00;25.85;;;16.77;;
49131;SDS011;35149;51.196;6.204;2022-09-12T07:39:32;21.02;;;15.10;;
49131;SDS011;35149;51.196;6.204;2022-09-12T07:41:58;22.05;;;16.02;;
49131;SDS011;35149;51.196;6.204;2022-09-12T07:44:26;22.48;;;14.90;;
49131;SDS011;35149;51.196;6.204;2022-09-12T07:46:53;21.02;;;16.35;;
49131;SDS011;35149;51.196;6.204;2022-09-12T07:49:20;20.33;;;15.85;;
49131;SDS011;35149;51.196;6.204;2022-09-12T07:51:46;19.13;;;14.63;;
49131;SDS011;35149;51.196;6.204;2022-09-12T07:54:13;18.85;;;14.48;;
49131;SDS011;35149;51.196;6.204;2022-09-12T07:56:41;23.83;;;16.02;;
49131;SDS011;35149;51.196;6.204;2022-09-12T07:59:11;22.85;;;15.52;;
49131;SDS011;35149;51.196;6.204;2022-09-12T08:01:38;21.48;;;15.07;;
49131;SDS011;35149;51.196;6.204;2022-09-12T08:04:06;23.33;;;15.98;;
49131;SDS011;35149;51.196;6.204;2022-09-12T08:06:34;22.15;;;14.90;;
49131;SDS011;35149;51.196;6.204;2022-09-12T08:09:08;19.02;;;13.27;;
49131;SDS011;35149;51.196;6.204;2022-09-12T08:11:37;19.90;;;15.45;;
49131;SDS011;35149;51.196;6.204;2022-09-12T08:14:03;21.02;;;15.35;;
49131;SDS011;35149;51.196;6.204;2022-09-12T08:16:31;21.42;;;15.32;;
49131;SDS011;35149;51.196;6.204;2022-09-12T08:19:01;20.02;;;14.77;;
49131;SDS011;35149;51.196;6.204;2022-09-12T08:21:29;21.13;;;14.27;;
49131;SDS011;35149;51.196;6.204;2022-09-12T08:23:58;21.50;;;15.32;;
49131;SDS011;35149;51.196;6.204;2022-09-12T08:26:29;20.03;;;15.53;;
49131;SDS011;35149;51.196;6.204;2022-09-12T08:28:57;24.13;;;16.63;;
49131;SDS011;35149;51.196;6.204;2022-09-12T08:31:27;26.95;;;15.85;;
49131;SDS011;35149;51.196;6.204;2022-09-12T08:34:07;20.45;;;14.23;;
49131;SDS011;35149;51.196;6.204;2022-09-12T08:36:38;21.92;;;14.95;;
49131;SDS011;35149;51.196;6.204;2022-09-12T08:39:07;19.65;;;15.57;;
49131;SDS011;35149;51.196;6.204;2022-09-12T08:49:32;19.27;;;13.88;;
49131;SDS011;35149;51.196;6.204;2022-09-12T08:52:14;18.20;;;13.75;;
49131;SDS011;35149;51.196;6.204;2022-09-12T08:54:49;18.40;;;14.07;;
49131;SDS011;35149;51.196;6.204;2022-09-12T08:57:16;15.85;;;12.63;;
49131;SDS011;35149;51.196;6.204;2022-09-12T08:59:44;19.27;;;13.13;;
49131;SDS011;35149;51.196;6.204;2022-09-12T09:05:28;15.68;;;12.00;;
49131;SDS011;35149;51.196;6.204;2022-09-12T09:19:02;13.80;;;10.98;;
49131;SDS011;35149;51.196;6.204;2022-09-12T09:21:36;14.30;;;10.60;;
49131;SDS011;35149;51.196;6.204;2022-09-12T09:24:14;11.77;;;9.82;;
49131;SDS011;35149;51.196;6.204;2022-09-12T09:26:56;12.43;;;9.32;;
49131;SDS011;35149;51.196;6.204;2022-09-12T09:29:29;14.43;;;10.23;;
49131;SDS011;35149;51.196;6.204;2022-09-12T09:32:11;14.75;;;9.50;;
49131;SDS011;35149;51.196;6.204;2022-09-12T09:34:53;12.45;;;9.13;;
49131;SDS011;35149;51.196;6.204;2022-09-12T09:37:33;12.68;;;9.55;;
49131;SDS011;35149;51.196;6.204;2022-09-12T09:40:26;11.48;;;9.20;;
49131;SDS011;35149;51.196;6.204;2022-09-12T09:43:18;9.00;;;7.07;;
49131;SDS011;35149;51.196;6.204;2022-09-12T09:45:50;6.57;;;5.97;;
49131;SDS011;35149;51.196;6.204;2022-09-12T09:48:18;7.50;;;6.35;;
49131;SDS011;35149;51.196;6.204;2022-09-12T09:51:01;5.95;;;5.35;;
49131;SDS011;35149;51.196;6.204;2022-09-12T09:56:36;6.20;;;5.60;;
49131;SDS011;35149;51.196;6.204;2022-09-12T09:59:14;7.22;;;5.43;;
49131;SDS011;35149;51.196;6.204;2022-09-12T10:01:46;5.97;;;5.45;;
49131;SDS011;35149;51.196;6.204;2022-09-12T10:04:25;5.07;;;4.57;;
49131;SDS011;35149;51.196;6.204;2022-09-12T10:06:58;5.35;;;4.88;;
49131;SDS011;35149;51.196;6.204;2022-09-12T10:09:29;4.40;;;4.07;;
49131;SDS011;35149;51.196;6.204;2022-09-12T10:15:22;4.38;;;3.85;;
49131;SDS011;35149;51.196;6.204;2022-09-12T10:17:56;4.30;;;3.45;;
49131;SDS011;35149;51.196;6.204;2022-09-12T10:20:37;5.10;;;3.50;;
49131;SDS011;35149;51.196;6.204;2022-09-12T10:26:02;3.45;;;3.25;;
49131;SDS011;35149;51.196;6.204;2022-09-12T10:28:39;3.95;;;3.28;;
49131;SDS011;35149;51.196;6.204;2022-09-12T10:31:09;4.68;;;4.28;;
49131;SDS011;35149;51.196;6.204;2022-09-12T10:33:46;4.55;;;3.63;;
49131;SDS011;35149;51.196;6.204;2022-09-12T10:36:22;3.13;;;2.92;;
49131;SDS011;35149;51.196;6.204;2022-09-12T10:38:50;3.50;;;2.92;;
49131;SDS011;35149;51.196;6.204;2022-09-12T10:41:19;3.58;;;3.00;;
49131;SDS011;35149;51.196;6.204;2022-09-12T10:43:49;3.15;;;2.95;;
49131;SDS011;35149;51.196;6.204;2022-09-12T10:48:45;2.85;;;2.65;;
49131;SDS011;35149;51.196;6.204;2022-09-12T10:51:26;3.95;;;2.90;;
49131;SDS011;35149;51.196;6.204;2022-09-12T10:53:56;3.03;;;2.80;;
49131;SDS011;35149;51.196;6.204;2022-09-12T10:56:27;3.40;;;3.10;;
49131;SDS011;35149;51.196;6.204;2022-09-12T11:04:37;3.38;;;3.08;;
49131;SDS011;35149;51.196;6.204;2022-09-12T11:07:26;3.40;;;3.10;;
49131;SDS011;35149;51.196;6.204;2022-09-12T11:10:03;3.88;;;3.47;;
49131;SDS011;35149;51.196;6.204;2022-09-12T11:18:14;2.92;;;2.53;;
49131;SDS011;35149;51.196;6.204;2022-09-12T11:21:08;2.83;;;2.50;;
49131;SDS011;35149;51.196;6.204;2022-09-12T11:24:13;2.97;;;2.58;;
49131;SDS011;35149;51.196;6.204;2022-09-12T11:29:40;3.10;;;2.80;;
49131;SDS011;35149;51.196;6.204;2022-09-12T11:34:45;2.97;;;2.60;;
49131;SDS011;35149;51.196;6.204;2022-09-12T11:37:33;3.10;;;2.80;;
49131;SDS011;35149;51.196;6.204;2022-09-12T11:42:45;2.42;;;2.22;;
49131;SDS011;35149;51.196;6.204;2022-09-12T11:45:23;3.00;;;2.80;;
49131;SDS011;35149;51.196;6.204;2022-09-12T11:47:58;2.55;;;2.30;;
49131;SDS011;35149;51.196;6.204;2022-09-12T11:50:30;3.33;;;3.00;;
49131;SDS011;35149;51.196;6.204;2022-09-12T11:52:59;2.22;;;2.13;;
49131;SDS011;35149;51.196;6.204;2022-09-12T11:55:39;2.45;;;2.25;;
49131;SDS011;35149;51.196;6.204;2022-09-12T11:58:25;2.95;;;2.75;;
49131;SDS011;35149;51.196;6.204;2022-09-12T12:00:55;3.35;;;3.05;;
49131;SDS011;35149;51.196;6.204;2022-09-12T12:03:30;2.60;;;2.40;;
49131;SDS011;35149;51.196;6.204;2022-09-12T12:11:24;3.38;;;3.13;;
49131;SDS011;35149;51.196;6.204;2022-09-12T12:13:56;2.92;;;2.65;;
49131;SDS011;35149;51.196;6.204;2022-09-12T12:16:34;5.13;;;3.08;;
49131;SDS011;35149;51.196;6.204;2022-09-12T12:21:40;3.33;;;2.75;;
49131;SDS011;35149;51.196;6.204;2022-09-12T12:26:55;2.83;;;2.63;;
49131;SDS011;35149;51.196;6.204;2022-09-12T12:29:37;2.97;;;2.78;;
49131;SDS011;35149;51.196;6.204;2022-09-12T12:34:36;3.90;;;2.55;;
49131;SDS011;35149;51.196;6.204;2022-09-12T12:39:59;2.92;;;2.72;;
49131;SDS011;35149;51.196;6.204;2022-09-12T12:48:15;2.67;;;2.25;;
49131;SDS011;35149;51.196;6.204;2022-09-12T12:50:45;2.72;;;2.53;;
49131;SDS011;35149;51.196;6.204;2022-09-12T12:53:21;2.78;;;2.58;;
49131;SDS011;35149;51.196;6.204;2022-09-12T12:55:51;3.22;;;3.03;;
49131;SDS011;35149;51.196;6.204;2022-09-12T12:58:31;3.97;;;3.15;;
49131;SDS011;35149;51.196;6.204;2022-09-12T13:01:11;3.15;;;2.60;;
49131;SDS011;35149;51.196;6.204;2022-09-12T13:04:01;2.78;;;2.58;;
49131;SDS011;35149;51.196;6.204;2022-09-12T13:09:07;2.47;;;2.28;;
49131;SDS011;35149;51.196;6.204;2022-09-12T13:12:10;2.60;;;2.40;;
49131;SDS011;35149;51.196;6.204;2022-09-12T13:19:53;3.03;;;2.80;;
49131;SDS011;35149;51.196;6.204;2022-09-12T13:22:54;3.05;;;2.75;;
49131;SDS011;35149;51.196;6.204;2022-09-12T13:25:26;2.25;;;2.15;;
49131;SDS011;35149;51.196;6.204;2022-09-12T13:30:44;2.90;;;2.70;;
49131;SDS011;35149;51.196;6.204;2022-09-12T13:36:08;2.90;;;2.70;;
49131;SDS011;35149;51.196;6.204;2022-09-12T13:41:51;2.40;;;2.30;;
49131;SDS011;35149;51.196;6.204;2022-09-12T13:44:21;2.78;;;2.03;;
49131;SDS011;35149;51.196;6.204;2022-09-12T13:46:49;3.35;;;1.90;;
49131;SDS011;35149;51.196;6.204;2022-09-12T13:49:26;2.05;;;1.85;;
49131;SDS011;35149;51.196;6.204;2022-09-12T13:52:03;2.47;;;2.17;;
49131;SDS011;35149;51.196;6.204;2022-09-12T13:54:33;2.75;;;2.20;;
49131;SDS011;35149;51.196;6.204;2022-09-12T13:57:18;2.10;;;1.95;;
49131;SDS011;35149;51.196;6.204;2022-09-12T14:00:04;2.50;;;2.20;;
49131;SDS011;35149;51.196;6.204;2022-09-12T14:02:38;2.00;;;1.73;;
49131;SDS011;35149;51.196;6.204;2022-09-12T14:05:39;3.92;;;2.10;;
49131;SDS011;35149;51.196;6.204;2022-09-12T14:08:01;1.63;;;1.52;;
49131;SDS011;35149;51.196;6.204;2022-09-12T14:10:39;2.42;;;2.20;;
49131;SDS011;35149;51.196;6.204;2022-09-12T14:13:18;1.38;;;1.38;;
49131;SDS011;35149;51.196;6.204;2022-09-12T14:15:48;1.70;;;1.60;;
49131;SDS011;35149;51.196;6.204;2022-09-12T14:18:26;1.85;;;1.75;;
49131;SDS011;35149;51.196;6.204;2022-09-12T14:20:55;1.48;;;1.40;;
49131;SDS011;35149;51.196;6.204;2022-09-12T14:23:27;2.13;;;1.92;;
49131;SDS011;35149;51.196;6.204;2022-09-12T14:26:01;1.48;;;1.40;;
49131;SDS011;35149;51.196;6.204;2022-09-12T14:28:39;2.13;;;1.40;;
49131;SDS011;35149;51.196;6.204;2022-09-12T14:33:51;1.52;;;1.42;;
49131;SDS011;35149;51.196;6.204;2022-09-12T14:36:31;2.15;;;1.40;;
49131;SDS011;35149;51.196;6.204;2022-09-12T14:39:01;1.60;;;1.50;;
49131;SDS011;35149;51.196;6.204;2022-09-12T14:41:35;1.30;;;1.20;;
49131;SDS011;35149;51.196;6.204;2022-09-12T14:44:07;2.00;;;1.63;;
49131;SDS011;35149;51.196;6.204;2022-09-12T14:46:41;1.52;;;1.40;;
49131;SDS011;35149;51.196;6.204;2022-09-12T14:49:12;2.42;;;1.25;;
49131;SDS011;35149;51.196;6.204;2022-09-12T14:51:54;1.50;;;1.40;;
49131;SDS011;35149;51.196;6.204;2022-09-12T14:54:33;2.83;;;1.43;;
49131;SDS011;35149;51.196;6.204;2022-09-12T14:57:03;1.10;;;1.10;;
49131;SDS011;35149;51.196;6.204;2022-09-12T15:02:40;2.22;;;1.50;;
49131;SDS011;35149;51.196;6.204;2022-09-12T15:07:40;1.80;;;1.63;;
49131;SDS011;35149;51.196;6.204;2022-09-12T15:10:33;1.55;;;1.45;;
49131;SDS011;35149;51.196;6.204;2022-09-12T15:13:23;1.48;;;1.30;;
49131;SDS011;35149;51.196;6.204;2022-09-12T15:15:56;2.97;;;1.43;;
49131;SDS011;35149;51.196;6.204;2022-09-12T15:18:26;2.20;;;1.10;;
49131;SDS011;35149;51.196;6.204;2022-09-12T15:21:00;1.67;;;1.38;;
49131;SDS011;35149;51.196;6.204;2022-09-12T15:23:30;4.00;;;1.85;;
49131;SDS011;35149;51.196;6.204;2022-09-12T15:26:03;1.60;;;1.50;;
49131;SDS011;35149;51.196;6.204;2022-09-12T15:28:30;1.42;;;1.25;;
49131;SDS011;35149;51.196;6.204;2022-09-12T15:31:03;1.65;;;1.42;;
49131;SDS011;35149;51.196;6.204;2022-09-12T15:33:32;1.35;;;1.25;;
49131;SDS011;35149;51.196;6.204;2022-09-12T15:36:02;1.25;;;1.20;;
49131;SDS011;35149;51.196;6.204;2022-09-12T15:38:31;1.55;;;1.42;;
49131;SDS011;35149;51.196;6.204;2022-09-12T15:41:07;1.88;;;1.77;;
49131;SDS011;35149;51.196;6.204;2022-09-12T15:43:35;1.25;;;1.15;;
49131;SDS011;35149;51.196;6.204;2022-09-12T15:46:02;1.48;;;1.33;;
49131;SDS011;35149;51.196;6.204;2022-09-12T15:48:33;1.38;;;1.27;;
49131;SDS011;35149;51.196;6.204;2022-09-12T15:51:02;2.33;;;1.40;;
49131;SDS011;35149;51.196;6.204;2022-09-12T15:53:30;1.90;;;1.40;;
49131;SDS011;35149;51.196;6.204;2022-09-12T15:56:00;1.45;;;1.35;;
49131;SDS011;35149;51.196;6.204;2022-09-12T15:58:29;1.83;;;1.73;;
49131;SDS011;35149;51.196;6.204;2022-09-12T16:00:55;1.75;;;1.30;;
49131;SDS011;35149;51.196;6.204;2022-09-12T16:03:26;1.63;;;1.52;;
49131;SDS011;35149;51.196;6.204;2022-09-12T16:05:58;2.42;;;1.48;;
49131;SDS011;35149;51.196;6.204;2022-09-12T16:08:28;1.63;;;1.20;;
49131;SDS011;35149;51.196;6.204;2022-09-12T16:11:06;1.43;;;1.30;;
49131;SDS011;35149;51.196;6.204;2022-09-12T16:13:37;1.88;;;1.30;;
49131;SDS011;35149;51.196;6.204;2022-09-12T16:16:05;1.60;;;1.50;;
49131;SDS011;35149;51.196;6.204;2022-09-12T16:18:32;1.80;;;1.38;;
49131;SDS011;35149;51.196;6.204;2022-09-12T16:20:59;1.33;;;1.23;;
49131;SDS011;35149;51.196;6.204;2022-09-12T16:23:28;2.00;;;1.90;;
49131;SDS011;35149;51.196;6.204;2022-09-12T16:25:58;2.17;;;1.90;;
49131;SDS011;35149;51.196;6.204;2022-09-12T16:28:27;3.85;;;1.52;;
49131;SDS011;35149;51.196;6.204;2022-09-12T16:31:01;1.65;;;1.50;;
49131;SDS011;35149;51.196;6.204;2022-09-12T16:33:29;2.33;;;1.60;;
49131;SDS011;35149;51.196;6.204;2022-09-12T16:36:03;3.63;;;1.42;;
49131;SDS011;35149;51.196;6.204;2022-09-12T16:38:31;2.78;;;1.55;;
49131;SDS011;35149;51.196;6.204;2022-09-12T16:41:02;1.77;;;1.67;;
49131;SDS011;35149;51.196;6.204;2022-09-12T16:43:30;3.10;;;1.60;;
49131;SDS011;35149;51.196;6.204;2022-09-12T16:45:59;1.50;;;1.40;;
49131;SDS011;35149;51.196;6.204;2022-09-12T16:48:30;1.58;;;1.48;;
49131;SDS011;35149;51.196;6.204;2022-09-12T16:50:59;1.50;;;1.40;;
49131;SDS011;35149;51.196;6.204;2022-09-12T16:53:31;1.50;;;1.40;;
49131;SDS011;35149;51.196;6.204;2022-09-12T16:55:59;1.23;;;1.13;;
49131;SDS011;35149;51.196;6.204;2022-09-12T16:58:26;1.40;;;1.30;;
49131;SDS011;35149;51.196;6.204;2022-09-12T17:01:10;4.25;;;1.38;;
49131;SDS011;35149;51.196;6.204;2022-09-12T17:03:39;7.40;;;1.98;;
49131;SDS011;35149;51.196;6.204;2022-09-12T17:06:06;2.25;;;1.23;;
49131;SDS011;35149;51.196;6.204;2022-09-12T17:11:06;1.60;;;1.50;;
49131;SDS011;35149;51.196;6.204;2022-09-12T17:13:35;1.70;;;1.33;;
49131;SDS011;35149;51.196;6.204;2022-09-12T17:16:22;1.67;;;1.58;;
49131;SDS011;35149;51.196;6.204;2022-09-12T17:18:50;2.10;;;2.00;;
49131;SDS011;35149;51.196;6.204;2022-09-12T17:21:17;1.60;;;1.50;;
49131;SDS011;35149;51.196;6.204;2022-09-12T17:23:44;1.90;;;1.80;;
49131;SDS011;35149;51.196;6.204;2022-09-12T17:26:11;3.42;;;1.88;;
49131;SDS011;35149;51.196;6.204;2022-09-12T17:28:38;2.63;;;1.83;;
49131;SDS011;35149;51.196;6.204;2022-09-12T17:31:06;4.65;;;1.67;;
49131;SDS011;35149;51.196;6.204;2022-09-12T17:33:34;2.08;;;1.92;;
49131;SDS011;35149;51.196;6.204;2022-09-12T17:36:02;2.60;;;1.92;;
49131;SDS011;35149;51.196;6.204;2022-09-12T17:38:31;2.10;;;2.00;;
49131;SDS011;35149;51.196;6.204;2022-09-12T17:41:06;3.25;;;2.28;;
49131;SDS011;35149;51.196;6.204;2022-09-12T17:43:36;1.90;;;1.80;;
49131;SDS011;35149;51.196;6.204;2022-09-12T17:46:03;2.40;;;2.20;;
49131;SDS011;35149;51.196;6.204;2022-09-12T17:48:33;2.28;;;2.10;;
49131;SDS011;35149;51.196;6.204;2022-09-12T17:51:07;2.10;;;2.00;;